Time;durP1;ratioP1;P1;durP2;ratioP2;P2;SDS_P1;SDS_P2;PMS_P1;PMS_P2;Temp;Humidity;BMP_temperature;BMP_pressure;BME280_temperature;BME280_humidity;BME280_pressure;Samples;Min_cycle;Max_cycle;Signal;HPM_P1;HPM_P2
2022/08/12 00:44:42;;;;;;;7.80;5.20;;;19.80;99.90;;;;;;5014284;28;20069;-78
2022/08/12 00:47:10;;;;;;;7.55;5.00;;;19.80;99.90;;;;;;5003100;28;20474;-78
2022/08/12 00:49:36;;;;;;;8.23;5.78;;;19.80;99.90;;;;;;4987925;28;20067;-78
2022/08/12 00:52:13;;;;;;;9.55;5.20;;;19.80;99.90;;;;;;5019693;28;20198;-78
2022/08/12 00:54:49;;;;;;;7.43;4.82;;;19.80;99.90;;;;;;5014622;28;20041;-78
2022/08/12 00:57:21;;;;;;;7.45;4.70;;;19.70;99.90;;;;;;5001786;28;20041;-78
2022/08/12 00:59:52;;;;;;;7.30;4.80;;;19.70;99.90;;;;;;4996483;28;20139;-78
2022/08/12 01:02:32;;;;;;;8.80;5.20;;;19.70;99.90;;;;;;5033608;28;20053;-78
2022/08/12 01:13:26;;;;;;;8.23;4.80;;;19.60;99.90;;;;;;5029848;28;20042;-78
2022/08/12 01:15:54;;;;;;;9.00;4.40;;;19.60;99.90;;;;;;5020513;28;20487;-78
2022/08/12 01:18:23;;;;;;;7.75;3.95;;;19.60;99.90;;;;;;5040832;28;20081;-78
2022/08/12 01:21:02;;;;;;;6.30;4.20;;;19.50;99.90;;;;;;5032036;28;20042;-78
2022/08/12 01:24:07;;;;;;;8.70;4.72;;;19.60;99.90;;;;;;5001978;28;20045;-78
2022/08/12 01:26:33;;;;;;;5.55;3.60;;;19.60;99.90;;;;;;4973739;28;20045;-78
2022/08/12 01:29:02;;;;;;;6.47;4.10;;;19.50;99.90;;;;;;5006645;28;20049;-78
2022/08/12 01:31:28;;;;;;;6.90;4.20;;;19.50;99.90;;;;;;5035626;28;20051;-78
2022/08/12 01:34:08;;;;;;;5.15;3.70;;;19.50;99.90;;;;;;5007617;28;20121;-78
2022/08/12 01:36:49;;;;;;;5.53;3.85;;;19.50;99.90;;;;;;4999104;28;20044;-78
2022/08/12 01:39:16;;;;;;;7.63;3.92;;;19.40;99.90;;;;;;5028796;28;20405;-78
2022/08/12 01:41:57;;;;;;;5.32;3.60;;;19.50;99.90;;;;;;4996675;28;20510;-78
2022/08/12 01:44:26;;;;;;;7.82;3.88;;;19.30;99.90;;;;;;5020458;28;20503;-75
2022/08/12 01:47:29;;;;;;;5.50;4.10;;;19.30;99.90;;;;;;5022392;28;20033;-76
2022/08/12 01:50:32;;;;;;;6.43;4.30;;;19.30;99.90;;;;;;5038451;23;20065;-74
2022/08/12 01:53:09;;;;;;;6.20;3.83;;;19.30;99.90;;;;;;5011850;28;20041;-74
2022/08/12 01:55:40;;;;;;;6.10;3.75;;;19.30;99.90;;;;;;4995922;28;20486;-74
2022/08/12 01:58:25;;;;;;;5.55;4.15;;;19.20;99.90;;;;;;5012101;28;20435;-75
2022/08/12 02:01:03;;;;;;;6.28;3.70;;;19.20;99.90;;;;;;5011834;28;20185;-74
2022/08/12 02:12:56;;;;;;;6.90;3.92;;;19.10;99.90;;;;;;5011386;28;20053;-74
2022/08/12 02:15:26;;;;;;;5.53;3.92;;;19.10;99.90;;;;;;5029370;28;20068;-75
2022/08/12 02:18:03;;;;;;;6.00;3.83;;;19.10;99.90;;;;;;5008268;28;20518;-75
2022/08/12 02:20:49;;;;;;;6.38;3.80;;;19.00;99.90;;;;;;4992172;28;20074;-75
2022/08/12 02:23:18;;;;;;;5.72;3.67;;;19.00;99.90;;;;;;5010226;28;20380;-75
2022/08/12 02:25:45;;;;;;;6.30;3.70;;;19.00;99.90;;;;;;4991729;28;20050;-74
2022/08/12 02:28:10;;;;;;;8.57;3.60;;;19.00;99.90;;;;;;5009561;28;20559;-75
2022/08/12 02:30:36;;;;;;;5.78;3.67;;;18.90;99.90;;;;;;5009841;28;20157;-75
2022/08/12 02:33:05;;;;;;;6.10;3.40;;;18.90;99.90;;;;;;4991513;28;20112;-74
2022/08/12 02:35:33;;;;;;;7.47;3.90;;;18.90;99.90;;;;;;5009326;28;20042;-74
2022/08/12 02:38:01;;;;;;;6.78;4.38;;;18.90;99.90;;;;;;4991732;28;20053;-75
2022/08/12 02:40:28;;;;;;;7.22;3.47;;;18.90;99.90;;;;;;4991949;28;20132;-74
2022/08/12 02:43:01;;;;;;;5.97;4.00;;;18.80;99.90;;;;;;4994976;28;20489;-74
2022/08/12 02:45:37;;;;;;;5.20;3.40;;;18.80;99.90;;;;;;5007033;28;20049;-75
2022/08/12 02:48:06;;;;;;;6.33;4.17;;;18.80;99.90;;;;;;5009263;28;20048;-74
2022/08/12 02:50:38;;;;;;;7.35;3.70;;;18.80;99.90;;;;;;5026349;28;20041;-75
2022/08/12 02:53:06;;;;;;;5.35;3.65;;;18.80;99.90;;;;;;5011172;28;20312;-75
2022/08/12 02:55:34;;;;;;;7.78;3.78;;;18.70;99.90;;;;;;5020066;28;20049;-75
2022/08/12 02:58:08;;;;;;;6.63;3.67;;;18.70;99.90;;;;;;5010887;28;20052;-75
2022/08/12 03:00:36;;;;;;;6.32;3.88;;;18.70;99.90;;;;;;5011174;28;20053;-75
2022/08/12 03:03:07;;;;;;;5.93;3.90;;;18.70;99.90;;;;;;5011232;28;20053;-74
2022/08/12 03:05:37;;;;;;;6.28;4.13;;;18.70;99.90;;;;;;5011776;28;20176;-74
2022/08/12 03:08:04;;;;;;;6.80;3.63;;;18.70;99.90;;;;;;5011358;28;20057;-75
2022/08/12 03:10:38;;;;;;;6.22;3.60;;;18.70;99.90;;;;;;5010712;28;20120;-74
2022/08/12 03:13:06;;;;;;;7.35;3.35;;;18.70;99.90;;;;;;5010345;28;20041;-74
2022/08/12 03:15:31;;;;;;;5.13;3.28;;;18.70;99.90;;;;;;5010726;28;20502;-74
2022/08/12 03:18:23;;;;;;;8.90;4.22;;;18.60;99.90;;;;;;5010904;28;20095;-74
2022/08/12 03:20:49;;;;;;;6.75;3.53;;;18.70;99.90;;;;;;5011180;28;20561;-75
2022/08/12 03:23:15;;;;;;;7.15;4.95;;;18.60;99.90;;;;;;5010595;28;20045;-74
2022/08/12 03:25:42;;;;;;;7.80;4.00;;;18.60;99.90;;;;;;5027802;28;20305;-74
2022/08/12 03:28:12;;;;;;;7.05;3.83;;;18.60;99.90;;;;;;5028292;28;20043;-75
2022/08/12 03:30:41;;;;;;;8.23;3.92;;;18.60;99.90;;;;;;5028218;28;20037;-74
2022/08/12 03:33:11;;;;;;;6.97;3.95;;;18.60;99.90;;;;;;5010724;28;20080;-74
2022/08/12 03:35:41;;;;;;;4.70;3.47;;;18.60;99.90;;;;;;5027020;28;20099;-74
2022/08/12 03:38:10;;;;;;;7.60;4.15;;;18.50;99.90;;;;;;5027968;28;20136;-74
2022/08/12 04:00:23;;;;;;;6.00;4.22;;;18.50;99.90;;;;;;5010145;28;20225;-74
2022/08/12 04:03:50;;;;;;;6.75;4.03;;;18.30;99.90;;;;;;5028659;28;20115;-75
2022/08/12 04:05:48;;;;;;;8.20;4.25;;;18.40;99.90;;;;;;5008382;28;20124;-74
2022/08/12 04:08:14;;;;;;;6.53;4.43;;;18.40;99.90;;;;;;5010142;28;20151;-74
2022/08/12 04:13:24;;;;;;;7.38;4.18;;;18.40;99.90;;;;;;5010542;28;20049;-74
2022/08/12 04:15:51;;;;;;;6.32;4.32;;;18.40;99.90;;;;;;5027126;28;20125;-74
2022/08/12 04:18:17;;;;;;;6.05;4.18;;;18.30;99.90;;;;;;5026032;28;20065;-74
2022/08/12 04:20:43;;;;;;;6.30;4.07;;;18.30;99.90;;;;;;5026865;28;20042;-74
2022/08/12 04:23:15;;;;;;;7.38;4.13;;;18.30;99.90;;;;;;5022072;28;20121;-74
2022/08/12 04:25:42;;;;;;;8.50;3.85;;;18.40;99.90;;;;;;5026102;28;20055;-74
2022/08/12 04:28:08;;;;;;;6.38;4.40;;;18.30;99.90;;;;;;5027393;28;20052;-73
2022/08/12 04:30:35;;;;;;;6.22;4.20;;;18.30;99.90;;;;;;5009085;28;20038;-74
2022/08/12 04:33:01;;;;;;;6.40;4.20;;;18.30;99.90;;;;;;5028095;28;20033;-74
2022/08/12 04:35:27;;;;;;;7.55;4.55;;;18.30;99.90;;;;;;5028989;28;20052;-73
2022/08/12 04:37:55;;;;;;;7.53;4.38;;;18.30;99.90;;;;;;5047228;28;20045;-74
2022/08/12 04:40:25;;;;;;;6.07;4.10;;;18.30;99.90;;;;;;5045885;28;20040;-74
2022/08/12 04:42:52;;;;;;;8.57;4.47;;;18.30;99.90;;;;;;5029354;28;20045;-74
2022/08/12 04:45:18;;;;;;;7.15;4.20;;;18.30;99.90;;;;;;5011337;28;20049;-74
2022/08/12 04:47:44;;;;;;;7.03;4.68;;;18.30;99.90;;;;;;5027108;28;20091;-74
2022/08/12 04:50:14;;;;;;;6.15;4.05;;;18.30;99.90;;;;;;5028643;28;20038;-74
2022/08/12 04:52:40;;;;;;;8.00;4.07;;;18.30;99.90;;;;;;5027762;28;20049;-74
2022/08/12 04:55:09;;;;;;;6.20;3.90;;;18.30;99.90;;;;;;5009087;28;20056;-74
2022/08/12 04:57:35;;;;;;;5.97;3.72;;;18.30;99.90;;;;;;5027713;28;20045;-73
2022/08/12 05:00:01;;;;;;;6.38;3.95;;;18.30;99.90;;;;;;5012403;28;20059;-74
2022/08/12 05:02:26;;;;;;;8.18;4.40;;;18.30;99.90;;;;;;5013942;28;20054;-74
2022/08/12 05:04:57;;;;;;;6.05;4.22;;;18.30;99.90;;;;;;5031109;28;20085;-74
2022/08/12 05:07:22;;;;;;;5.75;3.80;;;18.30;99.90;;;;;;5013257;28;20181;-74
2022/08/12 05:09:48;;;;;;;8.40;4.43;;;18.30;99.90;;;;;;5013236;28;20053;-74
2022/08/12 05:12:18;;;;;;;5.22;3.47;;;18.30;99.90;;;;;;5029938;28;20426;-74
2022/08/12 05:14:44;;;;;;;4.78;3.33;;;18.30;99.90;;;;;;5013041;28;20698;-74
2022/08/12 05:17:10;;;;;;;;;;;18.30;99.90;;;;;;5031531;28;20126;-74
2022/08/12 05:19:35;;;;;;;6.43;3.90;;;18.30;99.90;;;;;;5030864;28;20390;-74
2022/08/12 05:22:01;;;;;;;5.53;3.75;;;18.30;99.90;;;;;;5031067;28;20041;-74
2022/08/12 05:24:27;;;;;;;6.28;3.70;;;18.30;99.90;;;;;;4995967;28;20392;-74
2022/08/12 05:26:53;;;;;;;6.30;3.88;;;18.40;99.90;;;;;;5042264;28;20037;-74
2022/08/12 05:29:19;;;;;;;6.95;4.38;;;18.30;99.90;;;;;;5040043;28;20292;-74
2022/08/12 05:31:45;;;;;;;7.47;4.03;;;18.40;99.90;;;;;;5012514;28;20068;-74
2022/08/12 05:34:13;;;;;;;7.00;3.83;;;18.40;99.90;;;;;;5012503;28;20045;-74
2022/08/12 05:36:42;;;;;;;7.28;3.35;;;18.40;99.90;;;;;;5012960;28;20392;-76
2022/08/12 05:39:08;;;;;;;5.70;3.88;;;18.50;99.90;;;;;;5017987;28;20048;-75
2022/08/12 05:41:34;;;;;;;5.28;3.58;;;18.50;99.90;;;;;;5027109;28;20116;-75
2022/08/12 05:44:06;;;;;;;6.47;3.28;;;18.50;99.90;;;;;;5008534;28;20475;-75
2022/08/12 05:46:32;;;;;;;7.47;4.05;;;18.50;99.90;;;;;;4999128;28;20073;-75
2022/08/12 05:48:59;;;;;;;6.68;3.70;;;18.50;99.90;;;;;;5012952;28;20041;-76
2022/08/12 05:51:26;;;;;;;5.28;3.30;;;18.60;99.90;;;;;;5013072;28;20128;-74
2022/08/12 05:53:53;;;;;;;4.18;3.15;;;18.60;99.90;;;;;;5030234;28;20092;-75
2022/08/12 05:56:28;;;;;;;5.10;3.20;;;18.60;99.90;;;;;;5029200;28;20076;-75
2022/08/12 05:58:55;;;;;;;8.35;3.63;;;18.60;99.90;;;;;;5026109;28;20089;-75
2022/08/12 06:01:23;;;;;;;7.00;3.33;;;18.70;99.90;;;;;;5000318;28;20137;-76
2022/08/12 06:03:49;;;;;;;6.20;2.95;;;18.70;99.90;;;;;;5005786;28;20050;-76
2022/08/12 06:06:18;;;;;;;;;;;18.70;99.90;;;;;;5029142;28;20128;-75
2022/08/12 06:08:47;;;;;;;6.75;2.90;;;18.70;99.90;;;;;;4995619;28;19957;-75
2022/08/12 06:11:16;;;;;;;7.00;2.85;;;18.80;99.90;;;;;;5028039;28;20044;-76
2022/08/12 06:13:42;;;;;;;7.03;3.00;;;18.80;99.90;;;;;;5004389;28;20128;-75
2022/08/12 06:16:09;;;;;;;4.35;3.03;;;18.90;99.90;;;;;;5022375;28;20041;-74
2022/08/12 06:18:38;;;;;;;4.13;2.85;;;18.90;99.90;;;;;;5025625;28;20085;-75
2022/08/12 06:21:08;;;;;;;6.18;3.38;;;18.90;99.90;;;;;;5031066;28;20044;-76
2022/08/12 06:23:34;;;;;;;4.57;2.47;;;19.00;99.90;;;;;;4997789;28;20421;-76
2022/08/12 06:26:00;;;;;;;;;;;19.00;99.90;;;;;;5013636;28;20189;-75
2022/08/12 06:28:26;;;;;;;5.60;2.75;;;19.10;99.90;;;;;;5010563;28;19927;-75
2022/08/12 06:30:52;;;;;;;5.45;2.80;;;19.10;99.90;;;;;;4987870;28;20041;-76
2022/08/12 06:33:19;;;;;;;4.05;2.83;;;19.10;99.90;;;;;;4994983;28;20052;-76
2022/08/12 06:35:45;;;;;;;7.30;2.88;;;19.20;99.90;;;;;;5019583;28;20053;-75
2022/08/12 06:38:21;;;;;;;5.45;2.80;;;19.20;99.90;;;;;;4993967;28;20042;-76
2022/08/12 06:43:42;;;;;;;4.28;2.47;;;19.30;99.90;;;;;;4982644;28;20104;-75
2022/08/12 06:46:08;;;;;;;4.55;2.72;;;19.30;99.90;;;;;;5005824;28;20096;-75
2022/08/12 06:48:36;;;;;;;6.10;2.20;;;19.40;99.90;;;;;;5003676;28;20037;-74
2022/08/12 06:51:03;;;;;;;5.10;2.70;;;19.40;99.90;;;;;;5028234;28;20519;-75
2022/08/12 06:53:31;;;;;;;6.35;2.78;;;19.50;99.90;;;;;;5012898;28;20088;-75
2022/08/12 06:56:00;;;;;;;3.88;2.50;;;19.50;99.90;;;;;;5029934;28;20390;-76
2022/08/12 06:58:30;;;;;;;5.80;2.08;;;19.60;99.90;;;;;;5009309;28;20072;-75
2022/08/12 07:00:59;;;;;;;3.17;2.17;;;19.70;99.90;;;;;;5022900;28;20120;-75
2022/08/12 07:03:29;;;;;;;5.60;2.38;;;19.80;99.90;;;;;;5010505;28;20041;-75
2022/08/12 07:06:03;;;;;;;5.25;2.10;;;19.80;99.90;;;;;;5017721;28;20037;-75
2022/08/12 07:08:32;;;;;;;5.28;2.42;;;19.90;99.90;;;;;;5027120;28;20107;-75
2022/08/12 07:11:00;;;;;;;2.47;1.80;;;19.90;99.90;;;;;;5001585;28;20045;-75
2022/08/12 07:13:28;;;;;;;6.07;2.60;;;20.00;99.90;;;;;;5011427;28;20509;-76
2022/08/12 07:15:57;;;;;;;4.63;2.38;;;20.10;99.90;;;;;;5028450;28;20483;-75
2022/08/12 07:18:28;;;;;;;5.50;2.25;;;20.10;99.90;;;;;;5024861;28;20322;-75
2022/08/12 07:20:55;;;;;;;6.90;2.22;;;20.20;99.90;;;;;;5044716;28;20037;-78
2022/08/12 07:23:21;;;;;;;4.68;2.40;;;20.30;99.90;;;;;;5034074;28;20052;-76
2022/08/12 07:25:47;;;;;;;3.72;2.15;;;20.20;99.90;;;;;;5027947;28;20252;-76
2022/08/12 07:28:22;;;;;;;4.15;1.90;;;20.40;99.90;;;;;;5003391;28;20120;-76
2022/08/12 07:30:49;;;;;;;4.93;1.80;;;20.40;99.90;;;;;;4995462;28;20041;-75
2022/08/12 07:33:16;;;;;;;4.85;2.00;;;20.50;99.90;;;;;;5027949;28;20041;-76
2022/08/12 07:35:46;;;;;;;3.72;2.10;;;20.60;99.90;;;;;;5009634;28;20041;-75
2022/08/12 07:38:24;;;;;;;2.50;1.60;;;20.60;99.90;;;;;;4993917;28;20045;-76
2022/08/12 07:41:14;;;;;;;4.65;2.10;;;20.70;99.90;;;;;;5013979;28;20065;-75
2022/08/12 07:43:47;;;;;;;3.33;1.73;;;20.80;99.90;;;;;;4993762;28;20103;-75
2022/08/12 07:46:20;;;;;;;3.72;1.90;;;20.80;99.90;;;;;;5009271;28;20116;-75
2022/08/12 07:48:48;;;;;;;5.03;2.08;;;21.00;99.90;;;;;;5026235;28;20045;-76
2022/08/12 07:51:15;;;;;;;3.53;2.08;;;21.00;99.90;;;;;;5003674;23;20055;-73
2022/08/12 07:53:41;;;;;;;2.38;1.60;;;21.10;99.90;;;;;;5001597;28;20128;-73
2022/08/12 07:56:08;;;;;;;3.17;1.75;;;21.20;99.90;;;;;;4982535;28;20172;-72
2022/08/12 07:58:38;;;;;;;2.65;1.63;;;21.30;99.90;;;;;;4983634;28;20119;-73
2022/08/12 08:01:09;;;;;;;3.38;1.75;;;21.30;99.90;;;;;;5014378;28;20052;-73
2022/08/12 08:03:36;;;;;;;2.88;1.75;;;21.40;99.90;;;;;;4981092;28;20072;-75
2022/08/12 08:06:03;;;;;;;4.80;1.70;;;21.50;99.90;;;;;;4999184;28;20403;-74
2022/08/12 08:08:28;;;;;;;2.72;1.63;;;21.60;99.90;;;;;;5005848;28;20136;-75
2022/08/12 08:12:52;;;;;;;;;;;21.70;99.90;;;;;;5023657;28;20116;-75
2022/08/12 08:13:43;;;;;;;3.88;1.70;;;21.70;99.90;;;;;;5016600;28;20004;-75
2022/08/12 08:16:09;;;;;;;3.10;1.50;;;21.90;99.90;;;;;;5022265;28;21032;-74
2022/08/12 08:18:35;;;;;;;;;;;21.90;99.90;;;;;;5018688;28;20099;-73
2022/08/12 08:21:03;;;;;;;4.47;1.55;;;22.00;99.90;;;;;;5006327;28;19940;-75
2022/08/12 08:26:15;;;;;;;3.70;1.58;;;22.20;99.90;;;;;;5020119;28;20526;-75
2022/08/12 08:28:41;;;;;;;2.20;1.40;;;22.20;99.90;;;;;;5016709;28;20038;-73
2022/08/12 08:31:07;;;;;;;2.33;1.27;;;22.40;99.90;;;;;;5022193;28;20042;-73
2022/08/12 08:33:33;;;;;;;;;;;22.50;99.90;;;;;;5006205;28;20822;-74
2022/08/12 08:35:59;;;;;;;2.63;1.45;;;22.60;99.90;;;;;;5026090;28;19917;-75
2022/08/12 08:38:25;;;;;;;2.65;1.55;;;22.70;99.90;;;;;;5000643;28;20050;-76
2022/08/12 08:43:35;;;;;;;2.92;1.30;;;22.90;99.90;;;;;;5001022;28;20267;-77
2022/08/12 08:46:04;;;;;;;;;;;23.00;99.90;;;;;;5016471;28;20065;-74
2022/08/12 08:48:32;;;;;;;3.15;1.73;;;23.10;99.90;;;;;;5021632;28;20034;-76
2022/08/12 08:50:58;;;;;;;2.78;1.40;;;23.20;99.90;;;;;;5006461;28;20068;-75
2022/08/12 08:53:25;;;;;;;3.10;1.50;;;23.30;99.90;;;;;;5024480;28;20040;-76
2022/08/12 08:55:52;;;;;;;1.92;1.30;;;23.30;99.90;;;;;;5024381;28;20037;-74
2022/08/12 08:58:20;;;;;;;1.83;1.13;;;23.50;99.90;;;;;;5008222;28;20094;-73
2022/08/12 09:00:49;;;;;;;3.65;1.35;;;23.60;99.90;;;;;;5005170;28;20042;-74
2022/08/12 09:03:15;;;;;;;3.88;1.40;;;23.60;99.90;;;;;;5022406;28;20041;-74
2022/08/12 09:05:41;;;;;;;2.60;1.40;;;23.70;99.90;;;;;;5002526;28;20124;-74
2022/08/12 09:08:08;;;;;;;;;;;23.80;99.90;;;;;;5020834;28;20562;-74
2022/08/12 09:10:34;;;;;;;2.95;1.40;;;23.90;99.90;;;;;;5000641;28;19921;-74
2022/08/12 09:15:46;;;;;;;2.83;1.67;;;24.10;99.90;;;;;;4999122;28;20462;-73
2022/08/12 09:18:14;;;;;;;2.65;1.45;;;24.20;99.90;;;;;;5006292;28;20124;-74
2022/08/12 09:20:41;;;;;;;2.15;1.40;;;24.30;99.90;;;;;;5020503;28;20363;-74
2022/08/12 09:23:09;;;;;;;2.75;1.60;;;24.40;99.90;;;;;;5024457;28;20054;-74
2022/08/12 09:25:36;;;;;;;3.08;1.50;;;24.50;99.90;;;;;;4984342;28;20088;-74
2022/08/12 09:28:03;;;;;;;5.50;1.50;;;24.60;99.90;;;;;;5004339;28;20112;-73
2022/08/12 09:30:29;;;;;;;4.45;1.67;;;24.70;99.90;;;;;;5018111;28;20225;-74
2022/08/12 09:32:55;;;;;;;2.83;1.35;;;24.90;99.90;;;;;;5019338;28;20033;-73
2022/08/12 09:35:23;;;;;;;2.20;1.50;;;24.90;99.90;;;;;;5021926;28;20040;-74
2022/08/12 09:37:54;;;;;;;2.00;1.20;;;25.10;99.90;;;;;;5004095;28;20050;-74
2022/08/12 09:40:21;;;;;;;3.15;1.60;;;25.20;99.90;;;;;;5017253;28;20052;-74
2022/08/12 09:45:33;;;;;;;2.80;1.42;;;25.40;99.90;;;;;;5015565;28;20111;-74
2022/08/12 09:48:02;;;;;;;2.65;1.63;;;25.60;99.90;;;;;;5018214;28;20050;-74
2022/08/12 09:50:29;;;;;;;3.25;1.90;;;25.70;99.90;;;;;;5017010;28;20454;-74
2022/08/12 09:53:13;;;;;;;5.40;1.63;;;25.80;99.90;;;;;;5014012;28;20037;-74
2022/08/12 09:55:54;;;;;;;2.30;1.55;;;25.90;99.90;;;;;;5002475;28;20049;-74
2022/08/12 09:58:28;;;;;;;1.92;1.25;;;26.00;99.90;;;;;;5001005;28;20085;-74
2022/08/12 10:00:56;;;;;;;2.65;1.65;;;26.20;99.90;;;;;;5004903;28;20104;-74
2022/08/12 10:03:25;;;;;;;5.10;1.50;;;26.30;99.90;;;;;;5023796;28;20045;-74
2022/08/12 10:05:52;;;;;;;3.10;1.80;;;26.30;99.90;;;;;;5007047;28;20049;-75
2022/08/12 10:08:18;;;;;;;2.35;1.33;;;26.40;99.90;;;;;;5026502;28;20041;-74
2022/08/12 10:13:40;;;;;;;;;;;26.60;99.90;;;;;;5021044;28;20099;-74
2022/08/12 10:16:27;;;;;;;5.55;1.77;;;26.70;99.90;;;;;;5021830;28;19960;-74
2022/08/12 10:19:00;;;;;;;2.00;1.38;;;26.80;99.90;;;;;;5014743;28;20084;-74
2022/08/12 10:21:37;;;;;;;3.28;1.48;;;26.80;99.90;;;;;;5019206;28;20033;-74
2022/08/12 10:24:03;;;;;;;2.17;1.40;;;26.90;99.90;;;;;;4987589;28;20029;-74
2022/08/12 10:31:59;;;;;;;3.70;1.45;;;27.20;98.30;;;;;;5022247;28;20087;-74
2022/08/12 10:34:25;;;;;;;3.70;1.60;;;27.30;97.70;;;;;;5004357;28;20081;-73
2022/08/12 10:36:57;;;;;;;3.30;1.77;;;27.40;97.10;;;;;;4997474;28;20535;-73
2022/08/12 10:39:24;;;;;;;1.92;1.15;;;27.50;96.10;;;;;;5023085;28;22627;-74
2022/08/12 10:44:35;;;;;;;2.50;1.60;;;27.60;94.90;;;;;;5001203;28;20037;-73
2022/08/12 10:47:01;;;;;;;3.45;1.55;;;27.70;94.50;;;;;;5003472;28;20042;-74
2022/08/12 10:49:30;;;;;;;2.35;1.58;;;27.80;94.00;;;;;;5000432;28;20131;-74
2022/08/12 10:51:56;;;;;;;2.58;1.50;;;27.90;93.20;;;;;;5003997;28;20454;-73
2022/08/12 10:54:25;;;;;;;4.10;1.60;;;28.00;92.70;;;;;;4997930;28;20403;-73
2022/08/12 10:56:51;;;;;;;2.50;1.55;;;28.10;91.60;;;;;;4994060;28;20656;-73
2022/08/12 10:59:18;;;;;;;2.38;1.23;;;28.20;91.50;;;;;;5001558;28;20038;-73
2022/08/12 11:01:44;;;;;;;3.20;1.42;;;28.30;90.60;;;;;;5001176;28;20530;-73
2022/08/12 11:04:12;;;;;;;2.83;2.03;;;28.30;89.70;;;;;;5002985;28;20142;-74
2022/08/12 11:06:52;;;;;;;3.97;1.42;;;28.40;89.30;;;;;;5004297;28;20272;-73
2022/08/12 11:09:20;;;;;;;2.63;1.40;;;28.50;87.70;;;;;;5001177;28;20445;-73
2022/08/12 11:11:47;;;;;;;2.05;1.15;;;28.60;85.90;;;;;;5021705;28;20045;-73
2022/08/12 11:14:18;;;;;;;2.25;1.30;;;28.70;82.60;;;;;;5003523;28;20055;-73
2022/08/12 11:16:44;;;;;;;2.40;1.70;;;28.70;80.30;;;;;;5020724;28;20108;-74
2022/08/12 11:19:13;;;;;;;4.70;1.63;;;28.80;81.00;;;;;;5018482;28;20067;-74
2022/08/12 11:21:39;;;;;;;2.90;1.27;;;28.80;79.40;;;;;;5002583;28;20075;-73
2022/08/12 11:24:05;;;;;;;4.18;1.40;;;28.90;79.60;;;;;;5022779;28;20038;-73
2022/08/12 11:26:32;;;;;;;2.88;1.67;;;29.00;78.80;;;;;;4987146;28;20045;-73
2022/08/12 11:28:57;;;;;;;2.13;1.15;;;29.10;78.00;;;;;;5021247;28;20040;-73
2022/08/12 11:31:23;;;;;;;1.75;1.27;;;29.10;77.40;;;;;;5019285;28;20038;-73
2022/08/12 11:33:49;;;;;;;3.28;1.60;;;29.20;76.70;;;;;;5017496;28;20108;-74
2022/08/12 11:36:15;;;;;;;2.00;1.20;;;29.30;76.30;;;;;;5004827;28;20068;-74
2022/08/12 11:38:41;;;;;;;2.40;1.35;;;29.40;75.40;;;;;;5010702;28;20068;-74
2022/08/12 11:41:07;;;;;;;2.70;1.45;;;29.50;73.80;;;;;;5025142;28;20041;-73
2022/08/12 11:43:32;;;;;;;2.28;1.30;;;29.50;73.70;;;;;;5003593;28;20044;-74
2022/08/12 11:45:59;;;;;;;3.38;1.80;;;29.60;72.50;;;;;;5017066;28;20120;-73
2022/08/12 11:48:25;;;;;;;2.33;1.60;;;29.70;72.60;;;;;;4993664;28;20510;-73
2022/08/12 11:50:51;;;;;;;2.17;1.33;;;29.70;71.70;;;;;;4995930;28;20033;-74
2022/08/12 11:53:17;;;;;;;3.00;1.50;;;29.80;71.00;;;;;;4996207;28;20063;-74
2022/08/12 11:55:42;;;;;;;2.80;1.40;;;29.90;69.30;;;;;;4995828;28;20048;-73
2022/08/12 11:58:08;;;;;;;3.35;1.20;;;30.00;68.20;;;;;;5014907;28;20165;-74
2022/08/12 12:00:34;;;;;;;2.78;1.30;;;30.00;68.30;;;;;;5018086;28;20845;-74
2022/08/12 12:03:00;;;;;;;8.13;1.83;;;30.10;68.20;;;;;;5006245;28;20098;-73
2022/08/12 12:05:25;;;;;;;1.63;1.13;;;30.20;67.40;;;;;;5022644;28;20132;-73
2022/08/12 12:07:51;;;;;;;2.85;1.23;;;30.30;66.30;;;;;;5002738;28;20118;-74
2022/08/12 12:10:19;;;;;;;2.60;1.25;;;30.40;65.50;;;;;;5018715;28;20033;-74
2022/08/12 12:12:45;;;;;;;1.70;1.33;;;30.40;64.80;;;;;;5001451;28;20400;-73
2022/08/12 12:15:11;;;;;;;2.22;1.20;;;30.40;64.00;;;;;;4999752;28;20093;-74
2022/08/12 12:17:38;;;;;;;2.58;1.08;;;30.60;63.90;;;;;;4987105;28;20049;-74
2022/08/12 12:20:08;;;;;;;1.77;1.02;;;30.60;63.40;;;;;;5002944;28;20460;-74
2022/08/12 12:22:35;;;;;;;2.00;1.20;;;30.80;63.30;;;;;;5019088;28;20124;-74
2022/08/12 12:25:01;;;;;;;2.08;1.40;;;30.90;63.00;;;;;;4989407;28;20057;-74
2022/08/12 12:27:27;;;;;;;1.70;1.05;;;30.90;62.30;;;;;;4997573;28;20042;-74
2022/08/12 12:29:55;;;;;;;2.15;1.38;;;31.00;62.40;;;;;;5013041;28;20399;-74
2022/08/12 12:32:21;;;;;;;3.13;1.60;;;31.10;61.80;;;;;;5015900;28;20051;-74
2022/08/12 12:34:46;;;;;;;3.90;1.20;;;31.20;61.50;;;;;;5016897;28;20034;-74
2022/08/12 12:37:12;;;;;;;3.22;1.42;;;31.20;60.40;;;;;;5023176;28;20431;-73
2022/08/12 12:39:38;;;;;;;1.95;1.10;;;31.30;60.10;;;;;;5017702;28;20038;-74
2022/08/12 12:42:05;;;;;;;1.48;1.10;;;31.30;59.60;;;;;;5004554;28;20036;-73
2022/08/12 12:44:30;;;;;;;1.55;1.15;;;31.40;59.10;;;;;;4998432;28;20079;-74
2022/08/12 12:46:56;;;;;;;4.13;1.20;;;31.50;58.60;;;;;;5022919;28;20072;-74
2022/08/12 12:49:21;;;;;;;1.85;1.25;;;31.50;58.20;;;;;;5002596;28;20037;-74
2022/08/12 12:51:47;;;;;;;2.42;1.10;;;31.60;58.00;;;;;;5001503;28;20042;-74
2022/08/12 12:54:13;;;;;;;1.63;0.95;;;31.70;57.70;;;;;;5003214;28;20037;-74
2022/08/12 12:56:48;;;;;;;2.80;1.83;;;31.80;57.30;;;;;;5017232;28;20287;-74
2022/08/12 12:59:17;;;;;;;1.95;1.23;;;31.80;56.30;;;;;;5002535;28;20100;-74
2022/08/12 13:01:43;;;;;;;2.80;1.00;;;31.90;55.90;;;;;;5016963;28;20072;-74
2022/08/12 13:04:10;;;;;;;2.65;1.38;;;31.90;55.80;;;;;;5014857;28;20547;-74
2022/08/12 13:06:37;;;;;;;2.10;1.30;;;31.90;55.50;;;;;;5017582;28;20132;-74
2022/08/12 13:09:03;;;;;;;2.63;1.20;;;32.00;55.00;;;;;;4999647;28;20471;-74
2022/08/12 13:11:30;;;;;;;2.42;1.25;;;32.10;54.40;;;;;;5008861;28;20211;-74
2022/08/12 13:13:56;;;;;;;3.03;1.08;;;32.10;54.20;;;;;;4998976;28;20068;-74
2022/08/12 13:16:28;;;;;;;1.88;1.10;;;32.20;54.00;;;;;;5003529;28;20487;-74
2022/08/12 13:18:54;;;;;;;1.70;1.00;;;32.20;53.80;;;;;;5018682;28;20124;-74
2022/08/12 13:21:20;;;;;;;2.13;1.20;;;32.30;53.50;;;;;;5021094;28;20049;-74
2022/08/12 13:23:49;;;;;;;2.22;1.23;;;32.30;53.20;;;;;;5003240;28;20194;-74
2022/08/12 13:26:17;;;;;;;2.90;1.10;;;32.40;53.00;;;;;;5003280;28;20069;-74
2022/08/12 13:28:44;;;;;;;3.70;1.30;;;32.50;53.00;;;;;;5022948;28;20083;-74
2022/08/12 13:31:11;;;;;;;1.85;1.17;;;32.50;52.90;;;;;;5025712;28;20059;-75
2022/08/12 13:33:38;;;;;;;1.70;1.15;;;32.60;52.80;;;;;;5008521;28;20136;-74
2022/08/12 13:36:04;;;;;;;2.83;1.27;;;32.60;53.00;;;;;;5019513;28;20045;-70
2022/08/12 13:38:35;;;;;;;4.07;1.08;;;32.60;51.70;;;;;;5002741;28;20503;-70
2022/08/12 13:41:05;;;;;;;3.00;0.95;;;32.60;51.10;;;;;;5009339;28;20111;-70
2022/08/12 13:43:32;;;;;;;2.38;1.20;;;32.70;51.20;;;;;;5004138;28;20222;-70
2022/08/12 13:45:58;;;;;;;3.88;1.10;;;32.80;50.90;;;;;;5004591;28;20045;-70
2022/08/12 13:48:24;;;;;;;1.45;0.95;;;32.90;50.90;;;;;;5017028;28;20046;-70
2022/08/12 13:50:51;;;;;;;2.00;1.08;;;33.00;50.40;;;;;;5010981;28;20215;-70
2022/08/12 13:53:18;;;;;;;3.53;0.98;;;33.00;49.80;;;;;;4999541;28;20073;-70
2022/08/12 13:55:48;;;;;;;1.70;1.20;;;33.00;48.80;;;;;;5015076;28;20053;-70
2022/08/12 13:58:15;;;;;;;3.00;1.00;;;33.10;48.90;;;;;;5009278;28;20049;-70
2022/08/12 14:00:49;;;;;;;2.25;1.23;;;33.20;49.40;;;;;;5023414;28;20044;-70
2022/08/12 14:03:20;;;;;;;3.00;1.40;;;33.20;49.30;;;;;;5005758;28;20092;-70
2022/08/12 14:05:46;;;;;;;2.72;1.20;;;33.20;49.30;;;;;;5024321;28;20052;-70
2022/08/12 14:08:14;;;;;;;1.52;1.20;;;33.20;49.20;;;;;;5000987;28;20042;-70
2022/08/12 14:10:48;;;;;;;2.47;1.45;;;33.20;48.60;;;;;;5018933;28;20105;-70
2022/08/12 14:13:28;;;;;;;2.25;1.30;;;33.30;48.90;;;;;;5004445;28;20037;-70
2022/08/12 14:15:57;;;;;;;3.58;2.13;;;33.20;49.70;;;;;;5009980;28;20037;-70
2022/08/12 14:18:24;;;;;;;1.70;1.02;;;33.30;50.40;;;;;;5008769;28;20145;-70
2022/08/12 14:21:13;;;;;;;2.78;1.42;;;33.40;49.80;;;;;;5026536;28;20094;-70
2022/08/12 14:23:42;;;;;;;2.75;1.88;;;33.40;49.20;;;;;;4998948;28;20124;-70
2022/08/12 14:26:10;;;;;;;2.25;1.48;;;33.30;48.70;;;;;;5001594;28;20132;-70
2022/08/12 14:28:37;;;;;;;3.00;1.10;;;33.30;49.00;;;;;;5023130;28;20087;-70
2022/08/12 14:31:04;;;;;;;2.90;1.35;;;33.30;49.80;;;;;;5018032;28;20067;-70
2022/08/12 14:33:35;;;;;;;2.67;1.23;;;33.30;50.80;;;;;;4997124;28;20057;-70
2022/08/12 14:36:04;;;;;;;1.85;1.17;;;33.20;51.30;;;;;;5013173;28;20037;-70
2022/08/12 14:38:32;;;;;;;1.83;1.08;;;33.10;51.60;;;;;;5019626;28;20862;-70
2022/08/12 14:41:01;;;;;;;1.63;1.05;;;33.00;52.10;;;;;;5019619;28;20038;-70
2022/08/12 14:43:36;;;;;;;2.47;1.30;;;32.90;52.10;;;;;;5021475;28;20097;-70
2022/08/12 14:46:17;;;;;;;3.45;2.05;;;32.90;52.70;;;;;;5001485;28;20376;-70